Time;durP1;ratioP1;P1;durP2;ratioP2;P2;SDS_P1;SDS_P2;PMS_P1;PMS_P2;Temp;Humidity;BMP_temperature;BMP_pressure;BME280_temperature;BME280_humidity;BME280_pressure;Samples;Min_cycle;Max_cycle;Signal;HPM_P1;HPM_P2
2022/10/07 00:01:00;;;;;;;;;;;21.00;67.20;;;;;;5021080;28;809;-69
2022/10/07 00:03:25;;;;;;;;;;;20.90;67.10;;;;;;5018084;28;855;-69
2022/10/07 00:05:58;;;;;;;;;;;20.90;67.10;;;;;;5023235;28;908;-69
2022/10/07 00:08:23;;;;;;;;;;;20.90;67.10;;;;;;5015176;28;1201;-68
2022/10/07 00:10:49;;;;;;;;;;;21.00;67.10;;;;;;5016927;28;789;-69
2022/10/07 00:13:15;;;;;;;;;;;21.00;67.20;;;;;;5018784;28;1962;-69
2022/10/07 00:15:40;;;;;;;;;;;21.00;67.20;;;;;;5016760;28;789;-69
2022/10/07 00:18:06;;;;;;;;;;;21.00;67.20;;;;;;5020587;28;1292;-69
2022/10/07 00:20:35;;;;;;;;;;;21.00;67.20;;;;;;5022776;28;816;-69
2022/10/07 00:23:01;;;;;;;;;;;20.90;67.20;;;;;;5018680;28;1269;-69
2022/10/07 00:25:26;;;;;;;;;;;21.00;67.20;;;;;;5017313;28;911;-69
2022/10/07 00:27:52;;;;;;;;;;;21.00;67.30;;;;;;5022027;28;1272;-69
2022/10/07 00:30:17;;;;;;;;;;;20.90;67.20;;;;;;5019614;28;876;-70
2022/10/07 00:32:42;;;;;;;;;;;21.00;67.30;;;;;;5017979;28;1914;-69
2022/10/07 00:35:08;;;;;;;;;;;20.90;67.20;;;;;;5019674;28;1050;-69
2022/10/07 00:37:35;;;;;;;;;;;20.90;67.20;;;;;;5019256;28;1331;-69
2022/10/07 00:40:00;;;;;;;;;;;20.90;67.20;;;;;;5019591;28;877;-69
2022/10/07 00:42:25;;;;;;;;;;;20.90;67.20;;;;;;5019915;28;1011;-69
2022/10/07 00:44:51;;;;;;;;;;;20.90;67.30;;;;;;5017754;28;1190;-69
2022/10/07 00:47:29;;;;;;;;;;;20.90;67.30;;;;;;5019754;28;1316;-69
2022/10/07 00:50:03;;;;;;;;;;;20.90;67.30;;;;;;5020502;28;1054;-69
2022/10/07 00:52:29;;;;;;;;;;;20.90;67.30;;;;;;5019972;28;1906;-69
2022/10/07 00:54:55;;;;;;;;;;;20.90;67.40;;;;;;5024243;28;946;-69
2022/10/07 00:57:20;;;;;;;;;;;20.90;67.40;;;;;;5018067;28;1245;-69
2022/10/07 00:59:46;;;;;;;;;;;20.90;67.40;;;;;;5015755;28;954;-69
2022/10/07 01:02:11;;;;;;;;;;;20.90;67.40;;;;;;5017326;28;916;-69
2022/10/07 01:04:37;;;;;;;;;;;20.90;67.40;;;;;;5021047;28;969;-69
2022/10/07 01:07:03;;;;;;;;;;;20.90;67.40;;;;;;5016225;28;1205;-69
2022/10/07 01:09:28;;;;;;;;;;;20.90;67.40;;;;;;5018613;28;939;-69
2022/10/07 01:11:59;;;;;;;;;;;20.90;67.40;;;;;;5018621;28;1896;-69
2022/10/07 01:14:30;;;;;;;;;;;20.90;67.40;;;;;;5020632;28;837;-69
2022/10/07 01:17:05;;;;;;;;;;;20.90;67.50;;;;;;5021799;28;1354;-69
2022/10/07 01:19:39;;;;;;;;;;;20.90;67.40;;;;;;5019478;28;887;-69
2022/10/07 01:22:10;;;;;;;;;;;20.90;67.50;;;;;;5018238;28;856;-69
2022/10/07 01:24:39;;;;;;;;;;;20.90;67.50;;;;;;5018986;28;877;-69
2022/10/07 01:27:24;;;;;;;;;;;20.90;67.50;;;;;;5022739;28;1264;-69
2022/10/07 01:29:56;;;;;;;;;;;20.90;67.50;;;;;;5019861;28;1117;-69
2022/10/07 01:32:35;;;;;;;;;;;20.90;67.50;;;;;;5020114;28;1894;-68
2022/10/07 01:35:01;;;;;;;;;;;20.90;67.50;;;;;;5017327;28;853;-68
2022/10/07 01:37:27;;;;;;;;;;;20.90;67.50;;;;;;5017940;28;1292;-70
2022/10/07 01:39:54;;;;;;;;;;;20.90;67.60;;;;;;5021176;28;809;-69
2022/10/07 01:42:20;;;;;;;;;;;20.90;67.60;;;;;;5016478;28;855;-70
2022/10/07 01:44:46;;;;;;;;;;;20.90;67.60;;;;;;5021953;28;859;-70
2022/10/07 01:47:11;;;;;;;;;;;20.90;67.60;;;;;;5018023;28;1205;-70
2022/10/07 01:49:37;;;;;;;;;;;20.90;67.60;;;;;;5017388;28;1011;-69
2022/10/07 01:52:23;;;;;;;;;;;20.90;67.60;;;;;;5020325;28;1950;-70
2022/10/07 01:54:57;;;;;;;;;;;20.90;67.60;;;;;;4997832;28;1127;-69
2022/10/07 01:57:22;;;;;;;;;;;20.90;67.60;;;;;;5017686;28;1277;-69
2022/10/07 01:59:52;;;;;;;;;;;20.90;67.60;;;;;;5016652;28;864;-70
2022/10/07 02:02:24;;;;;;;;;;;20.90;67.60;;;;;;5016427;28;891;-70
2022/10/07 02:04:58;;;;;;;;;;;20.90;67.60;;;;;;5016511;28;857;-70
2022/10/07 02:07:42;;;;;;;;;;;20.90;67.60;;;;;;5019877;28;1273;-70
2022/10/07 02:10:08;;;;;;;;;;;20.90;67.70;;;;;;5015016;28;874;-69
2022/10/07 02:12:39;;;;;;;;;;;20.90;67.70;;;;;;5016915;28;1915;-70
2022/10/07 02:15:09;;;;;;;;;;;20.90;67.70;;;;;;5018626;28;911;-69
2022/10/07 02:17:36;;;;;;;;;;;20.90;67.70;;;;;;5019815;28;1275;-70
2022/10/07 02:20:01;;;;;;;;;;;20.90;67.80;;;;;;5020281;28;868;-70
2022/10/07 02:22:27;;;;;;;;;;;20.90;67.70;;;;;;5022751;28;1356;-68
2022/10/07 02:24:54;;;;;;;;;;;20.90;67.70;;;;;;5019685;28;918;-68
2022/10/07 02:27:21;;;;;;;;;;;20.90;67.70;;;;;;5021012;28;1533;-69
2022/10/07 02:29:47;;;;;;;;;;;20.90;67.70;;;;;;5023519;28;1152;-68
2022/10/07 02:32:14;;;;;;;;;;;20.90;67.70;;;;;;5020881;28;1902;-68
2022/10/07 02:34:42;;;;;;;;;;;20.90;67.80;;;;;;5022087;28;903;-68
2022/10/07 02:37:10;;;;;;;;;;;20.90;67.80;;;;;;5021527;28;1198;-68
2022/10/07 02:39:36;;;;;;;;;;;20.80;67.70;;;;;;5021794;28;935;-69
2022/10/07 02:42:03;;;;;;;;;;;20.90;67.80;;;;;;5022022;28;843;-68
2022/10/07 02:44:34;;;;;;;;;;;20.90;67.80;;;;;;5021835;28;849;-69
2022/10/07 02:47:02;;;;;;;;;;;20.90;67.80;;;;;;5024123;28;1284;-69
2022/10/07 02:49:28;;;;;;;;;;;20.90;67.80;;;;;;5021361;28;802;-69
2022/10/07 02:51:54;;;;;;;;;;;20.90;67.80;;;;;;5019036;28;1945;-69
2022/10/07 02:54:20;;;;;;;;;;;20.90;67.80;;;;;;5016263;28;891;-68
2022/10/07 02:56:45;;;;;;;;;;;20.80;67.80;;;;;;5023737;28;1288;-69
2022/10/07 02:59:11;;;;;;;;;;;20.80;67.70;;;;;;5020979;28;1120;-69
2022/10/07 03:01:37;;;;;;;;;;;20.90;67.80;;;;;;5022021;28;904;-69
2022/10/07 03:04:04;;;;;;;;;;;20.90;67.80;;;;;;5020040;28;857;-69
2022/10/07 03:06:29;;;;;;;;;;;20.80;67.80;;;;;;5021776;28;1273;-68
2022/10/07 03:08:56;;;;;;;;;;;20.90;67.90;;;;;;5017337;28;871;-68
2022/10/07 03:11:22;;;;;;;;;;;20.90;67.90;;;;;;5018545;28;808;-68
2022/10/07 03:13:48;;;;;;;;;;;20.80;67.80;;;;;;5021412;28;1948;-68
2022/10/07 03:16:13;;;;;;;;;;;20.90;68.60;;;;;;5021370;28;1267;-68
2022/10/07 03:18:39;;;;;;;;;;;20.80;67.80;;;;;;5021568;28;974;-69
2022/10/07 03:21:04;;;;;;;;;;;20.90;67.90;;;;;;5018478;28;907;-69
2022/10/07 03:23:30;;;;;;;;;;;20.90;68.70;;;;;;5019531;28;1014;-69
2022/10/07 03:25:56;;;;;;;;;;;20.90;67.90;;;;;;5022420;28;836;-70
2022/10/07 03:28:22;;;;;;;;;;;20.80;67.80;;;;;;5023739;28;1330;-69
2022/10/07 03:30:47;;;;;;;;;;;20.90;67.90;;;;;;5021949;28;891;-69
2022/10/07 03:33:13;;;;;;;;;;;20.80;67.90;;;;;;5024085;28;1902;-69
2022/10/07 03:35:39;;;;;;;;;;;20.90;67.90;;;;;;5028632;28;2194;-68
2022/10/07 03:38:07;;;;;;;;;;;20.90;68.00;;;;;;5021159;28;1363;-69
2022/10/07 03:40:38;;;;;;;;;;;20.90;68.00;;;;;;5003912;28;4418;-68
2022/10/07 03:43:04;;;;;;;;;;;20.90;68.00;;;;;;5021224;28;4580;-68
2022/10/07 03:45:29;;;;;;;;;;;20.90;68.00;;;;;;5019530;28;833;-68
2022/10/07 03:47:55;;;;;;;;;;;20.90;68.10;;;;;;5021460;28;1287;-69
2022/10/07 03:50:21;;;;;;;;;;;20.90;68.10;;;;;;5019259;28;804;-69
2022/10/07 03:52:47;;;;;;;;;;;21.00;68.20;;;;;;5019017;28;1988;-68
2022/10/07 03:55:12;;;;;;;;;;;21.10;68.10;;;;;;5020296;28;896;-68
2022/10/07 03:57:50;;;;;;;;;;;21.10;67.80;;;;;;5018944;28;1417;-68
2022/10/07 04:00:19;;;;;;;;;;;21.20;67.50;;;;;;5017133;28;1010;-68
2022/10/07 04:02:46;;;;;;;;;;;21.40;67.20;;;;;;5019469;28;883;-69
2022/10/07 04:05:11;;;;;;;;;;;21.50;66.80;;;;;;5019401;28;934;-68
2022/10/07 04:07:37;;;;;;;;;;;21.70;66.50;;;;;;5020827;28;1285;-69
2022/10/07 04:10:02;;;;;;;;;;;21.70;66.00;;;;;;5016217;28;827;-69
2022/10/07 04:12:30;;;;;;;;;;;21.90;65.70;;;;;;5018896;28;1953;-69
2022/10/07 04:14:55;;;;;;;;;;;22.00;65.40;;;;;;5019482;28;824;-68
2022/10/07 04:17:23;;;;;;;;;;;22.10;65.00;;;;;;5015247;28;1273;-68
2022/10/07 04:19:48;;;;;;;;;;;22.20;64.70;;;;;;5019451;28;863;-69
2022/10/07 04:22:14;;;;;;;;;;;22.30;64.40;;;;;;5020012;28;990;-68
2022/10/07 04:24:39;;;;;;;;;;;22.40;64.20;;;;;;5018704;28;1035;-68
2022/10/07 04:27:04;;;;;;;;;;;22.50;64.00;;;;;;5019598;28;1385;-68
2022/10/07 04:29:30;;;;;;;;;;;22.50;63.70;;;;;;5017076;28;898;-69
2022/10/07 04:31:57;;;;;;;;;;;22.60;63.50;;;;;;5021688;28;2395;-69
2022/10/07 04:34:23;;;;;;;;;;;22.70;63.30;;;;;;5017306;28;830;-69
2022/10/07 04:36:48;;;;;;;;;;;22.70;63.10;;;;;;5019183;28;1358;-68
2022/10/07 04:39:14;;;;;;;;;;;22.80;62.90;;;;;;5021212;28;849;-69
2022/10/07 04:41:39;;;;;;;;;;;22.90;62.80;;;;;;5018243;28;1288;-68
2022/10/07 04:44:05;;;;;;;;;;;22.90;62.50;;;;;;5016955;28;880;-69
2022/10/07 04:46:31;;;;;;;;;;;23.00;62.40;;;;;;5017302;28;1265;-68
2022/10/07 04:48:57;;;;;;;;;;;23.00;62.20;;;;;;5020028;28;847;-69
2022/10/07 04:51:23;;;;;;;;;;;23.10;62.10;;;;;;5020903;28;804;-68
2022/10/07 04:53:50;;;;;;;;;;;23.20;62.00;;;;;;5016222;28;1898;-68
2022/10/07 04:56:15;;;;;;;;;;;23.20;61.90;;;;;;5019278;28;1288;-68
2022/10/07 04:58:41;;;;;;;;;;;23.20;61.70;;;;;;5019054;28;868;-68
2022/10/07 05:01:07;;;;;;;;;;;23.20;61.60;;;;;;5016468;28;868;-69
2022/10/07 05:03:34;;;;;;;;;;;23.30;61.60;;;;;;5017885;28;891;-68
2022/10/07 05:06:01;;;;;;;;;;;23.30;61.50;;;;;;5019181;28;909;-69
2022/10/07 05:08:27;;;;;;;;;;;23.30;61.40;;;;;;5020261;28;1264;-68
2022/10/07 05:10:53;;;;;;;;;;;23.40;61.40;;;;;;5020910;28;1391;-68
2022/10/07 05:13:18;;;;;;;;;;;23.40;61.20;;;;;;5019644;28;1906;-68
2022/10/07 05:15:50;;;;;;;;;;;23.40;61.20;;;;;;5021980;28;927;-69
2022/10/07 05:18:17;;;;;;;;;;;23.40;61.10;;;;;;5017595;28;1783;-69
2022/10/07 05:20:45;;;;;;;;;;;23.50;61.20;;;;;;5016023;28;876;-69
2022/10/07 05:23:10;;;;;;;;;;;23.50;61.10;;;;;;5019490;28;927;-69
2022/10/07 05:25:36;;;;;;;;;;;23.50;61.00;;;;;;5018913;28;896;-69
2022/10/07 05:28:01;;;;;;;;;;;23.50;61.00;;;;;;5018036;28;1282;-69
2022/10/07 05:30:27;;;;;;;;;;;23.50;61.00;;;;;;5015810;28;939;-69
2022/10/07 05:32:53;;;;;;;;;;;23.60;61.00;;;;;;5021036;28;1949;-69
2022/10/07 05:35:19;;;;;;;;;;;23.50;60.90;;;;;;5015549;28;889;-67
2022/10/07 05:37:44;;;;;;;;;;;23.60;60.90;;;;;;5017621;28;1272;-67
2022/10/07 05:40:10;;;;;;;;;;;23.60;60.90;;;;;;5014840;28;1598;-68
2022/10/07 05:42:35;;;;;;;;;;;23.60;60.90;;;;;;5019408;28;888;-68
2022/10/07 05:45:03;;;;;;;;;;;23.60;60.90;;;;;;5014126;28;879;-68
2022/10/07 05:47:29;;;;;;;;;;;23.60;60.90;;;;;;5020908;28;1269;-68
2022/10/07 05:49:56;;;;;;;;;;;23.70;60.90;;;;;;5018137;28;842;-69
2022/10/07 05:52:21;;;;;;;;;;;23.70;60.90;;;;;;5015619;28;1970;-70
2022/10/07 05:54:47;;;;;;;;;;;23.70;60.90;;;;;;5018674;28;863;-68
2022/10/07 05:57:12;;;;;;;;;;;23.70;60.90;;;;;;5020196;28;1338;-67
2022/10/07 05:59:37;;;;;;;;;;;23.70;60.90;;;;;;5025519;28;1050;-68
2022/10/07 06:02:03;;;;;;;;;;;23.70;60.90;;;;;;5020993;28;1014;-68
2022/10/07 06:04:28;;;;;;;;;;;23.70;60.90;;;;;;5019596;28;997;-68
2022/10/07 06:06:54;;;;;;;;;;;23.70;60.90;;;;;;5020215;28;1225;-68
2022/10/07 06:14:49;;;;;;;;;;;23.70;60.90;;;;;;5022610;28;759;-68
2022/10/07 06:17:15;;;;;;;;;;;23.70;61.00;;;;;;5021771;28;1285;-67
2022/10/07 06:19:40;;;;;;;;;;;23.70;61.00;;;;;;5020488;28;841;-69
2022/10/07 06:22:06;;;;;;;;;;;23.70;61.00;;;;;;5022574;28;816;-68
2022/10/07 06:24:32;;;;;;;;;;;23.70;61.00;;;;;;5021132;28;1379;-68
2022/10/07 06:26:58;;;;;;;;;;;23.70;61.00;;;;;;5026187;28;1169;-68
2022/10/07 06:29:23;;;;;;;;;;;23.70;61.00;;;;;;5021531;28;820;-68
2022/10/07 06:31:49;;;;;;;;;;;23.70;61.00;;;;;;5022669;28;1034;-67
2022/10/07 06:34:14;;;;;;;;;;;23.70;61.00;;;;;;5021627;28;1965;-68
2022/10/07 06:36:39;;;;;;;;;;;23.70;61.10;;;;;;5022716;28;1269;-67
2022/10/07 06:39:05;;;;;;;;;;;23.70;61.10;;;;;;5024531;28;1006;-68
2022/10/07 06:41:30;;;;;;;;;;;23.70;61.10;;;;;;5022742;28;1030;-69
2022/10/07 06:43:56;;;;;;;;;;;23.70;61.10;;;;;;5019922;28;1081;-67
2022/10/07 06:46:21;;;;;;;;;;;23.70;61.10;;;;;;5024961;28;2158;-68
2022/10/07 06:48:47;;;;;;;;;;;23.70;61.20;;;;;;5021571;28;2086;-68
2022/10/07 06:51:13;;;;;;;;;;;23.70;61.20;;;;;;5023887;28;1213;-68
2022/10/07 06:53:38;;;;;;;;;;;23.70;61.20;;;;;;5022070;28;1894;-68
2022/10/07 06:56:04;;;;;;;;;;;23.70;61.30;;;;;;5020455;28;1242;-68
2022/10/07 06:58:29;;;;;;;;;;;23.70;61.30;;;;;;5020384;28;1377;-68
2022/10/07 07:00:55;;;;;;;;;;;23.70;61.40;;;;;;5023293;28;1409;-68
2022/10/07 07:03:21;;;;;;;;;;;23.70;61.40;;;;;;5018402;28;932;-67
2022/10/07 07:05:46;;;;;;;;;;;23.70;61.40;;;;;;5019756;28;1007;-67
2022/10/07 07:08:13;;;;;;;;;;;23.70;61.50;;;;;;5019492;28;1285;-68
2022/10/07 07:10:39;;;;;;;;;;;23.70;62.30;;;;;;5020927;28;1834;-67
2022/10/07 07:13:07;;;;;;;;;;;23.70;61.60;;;;;;5021740;28;1973;-68
2022/10/07 07:15:33;;;;;;;;;;;23.60;61.60;;;;;;5021426;28;1468;-67
2022/10/07 07:17:59;;;;;;;;;;;23.60;61.70;;;;;;5022691;28;2387;-68
2022/10/07 07:20:24;;;;;;;;;;;23.60;61.80;;;;;;5022211;28;1950;-68
2022/10/07 07:22:51;;;;;;;;;;;23.60;62.40;;;;;;5025004;28;1403;-68
2022/10/07 07:25:17;;;;;;;;;;;23.50;62.20;;;;;;5022835;28;1378;-68
2022/10/07 07:27:43;;;;;;;;;;;23.50;62.50;;;;;;5010787;28;1313;-67
2022/10/07 07:30:09;;;;;;;;;;;23.50;62.80;;;;;;5020210;28;1549;-68
2022/10/07 07:32:34;;;;;;;;;;;23.50;63.00;;;;;;5020678;28;1902;-68
2022/10/07 07:35:03;;;;;;;;;;;23.50;63.50;;;;;;5020935;28;1739;-68
2022/10/07 07:37:29;;;;;;;;;;;23.50;63.90;;;;;;5021253;28;1463;-68
2022/10/07 07:39:54;;;;;;;;;;;23.40;63.90;;;;;;5021987;28;887;-68
2022/10/07 07:42:20;;;;;;;;;;;23.40;64.10;;;;;;5021307;28;980;-68
2022/10/07 07:44:46;;;;;;;;;;;23.50;64.70;;;;;;5019971;28;808;-67
2022/10/07 07:47:11;;;;;;;;;;;23.40;63.90;;;;;;5020930;28;1348;-67
2022/10/07 07:49:37;;;;;;;;;;;23.40;63.90;;;;;;5020256;28;943;-67
2022/10/07 07:52:03;;;;;;;;;;;23.40;64.00;;;;;;5018381;28;1894;-68
2022/10/07 07:54:28;;;;;;;;;;;23.40;64.10;;;;;;5017396;28;808;-67
2022/10/07 07:56:54;;;;;;;;;;;23.40;64.20;;;;;;5018134;28;1798;-68
2022/10/07 07:59:19;;;;;;;;;;;23.40;64.40;;;;;;5021172;28;1062;-67
2022/10/07 08:01:44;;;;;;;;;;;23.40;64.50;;;;;;5018759;28;910;-68
2022/10/07 08:04:12;;;;;;;;;;;23.40;64.70;;;;;;5019276;28;1187;-67
2022/10/07 08:06:37;;;;;;;;;;;23.40;64.80;;;;;;5017906;28;1257;-68
2022/10/07 08:09:02;;;;;;;;;;;23.40;65.00;;;;;;5015765;28;1045;-68
2022/10/07 08:11:28;;;;;;;;;;;23.40;65.10;;;;;;5020122;28;847;-68
2022/10/07 08:13:55;;;;;;;;;;;23.40;65.20;;;;;;5018308;28;2210;-67
2022/10/07 08:16:20;;;;;;;;;;;23.30;65.40;;;;;;5019944;28;1480;-67
2022/10/07 08:18:46;;;;;;;;;;;23.30;65.50;;;;;;5024078;28;1016;-68
2022/10/07 08:21:12;;;;;;;;;;;23.30;65.70;;;;;;5022564;28;1326;-68
2022/10/07 08:23:38;;;;;;;;;;;23.30;65.80;;;;;;5018424;28;1157;-67
2022/10/07 08:26:04;;;;;;;;;;;23.30;66.10;;;;;;5020728;28;981;-67
2022/10/07 08:28:30;;;;;;;;;;;23.30;66.20;;;;;;5018661;28;1386;-67
2022/10/07 08:31:06;;;;;;;;;;;23.20;66.20;;;;;;5019528;28;882;-67
2022/10/07 08:33:32;;;;;;;;;;;23.20;66.90;;;;;;5015893;28;1906;-68
2022/10/07 08:35:58;;;;;;;;;;;23.20;67.20;;;;;;5021198;28;829;-68
2022/10/07 08:38:24;;;;;;;;;;;23.20;67.10;;;;;;5016235;28;1277;-68
2022/10/07 08:40:50;;;;;;;;;;;23.20;67.40;;;;;;5018430;28;786;-68
2022/10/07 08:43:16;;;;;;;;;;;23.10;67.40;;;;;;5018079;28;912;-68
2022/10/07 08:45:41;;;;;;;;;;;23.10;67.40;;;;;;5017662;28;932;-68
2022/10/07 08:48:09;;;;;;;;;;;23.10;67.60;;;;;;5020067;28;1360;-68
2022/10/07 08:50:44;;;;;;;;;;;23.10;67.80;;;;;;5022536;28;855;-68
2022/10/07 08:53:11;;;;;;;;;;;23.10;68.20;;;;;;5019168;28;2177;-68
2022/10/07 08:55:36;;;;;;;;;;;23.10;68.10;;;;;;5017560;28;2043;-68
2022/10/07 08:58:05;;;;;;;;;;;23.00;68.40;;;;;;5020858;28;1427;-68
2022/10/07 09:00:33;;;;;;;;;;;23.00;68.50;;;;;;5018985;28;1412;-68
2022/10/07 09:03:06;;;;;;;;;;;23.00;68.90;;;;;;5020190;28;918;-68
2022/10/07 09:05:39;;;;;;;;;;;23.00;69.10;;;;;;5023982;28;852;-68
2022/10/07 09:08:08;;;;;;;;;;;23.00;69.20;;;;;;5015607;28;1236;-68
2022/10/07 09:10:41;;;;;;;;;;;23.00;69.50;;;;;;5014940;23;2523;-68
2022/10/07 09:13:23;;;;;;;;;;;22.90;69.60;;;;;;4981276;28;2133;-68
2022/10/07 09:16:07;;;;;;;;;;;22.90;69.70;;;;;;4979943;28;1417;-68
2022/10/07 09:18:36;;;;;;;;;;;22.90;70.30;;;;;;5009359;28;863;-68
2022/10/07 09:21:02;;;;;;;;;;;22.90;70.10;;;;;;5016741;28;900;-69
2022/10/07 09:23:28;;;;;;;;;;;22.90;70.30;;;;;;5014382;28;1976;-68
2022/10/07 09:25:53;;;;;;;;;;;22.90;70.30;;;;;;5003169;28;1296;-68
2022/10/07 09:28:22;;;;;;;;;;;22.90;70.50;;;;;;5003013;28;1496;-68
2022/10/07 09:30:47;;;;;;;;;;;22.90;70.60;;;;;;5000658;28;838;-68
2022/10/07 09:33:14;;;;;;;;;;;22.80;70.90;;;;;;4996500;28;1961;-68
2022/10/07 09:35:39;;;;;;;;;;;22.80;70.80;;;;;;4998915;28;927;-68
2022/10/07 09:38:08;;;;;;;;;;;22.80;70.70;;;;;;5000412;28;1728;-68
2022/10/07 09:43:28;;;;;;;;;;;22.80;70.40;;;;;;5001956;28;764;-66
2022/10/07 09:45:54;;;;;;;;;;;22.80;70.50;;;;;;4998769;28;1113;-67
2022/10/07 09:48:21;;;;;;;;;;;22.80;70.80;;;;;;5019407;28;2124;-69
2022/10/07 09:50:46;;;;;;;;;;;22.80;70.80;;;;;;5014920;28;880;-68
2022/10/07 09:53:22;;;;;;;;;;;22.80;70.80;;;;;;5014993;28;1894;-69
2022/10/07 09:55:48;;;;;;;;;;;22.80;70.60;;;;;;5032590;28;883;-68
2022/10/07 09:58:16;;;;;;;;;;;22.70;70.50;;;;;;5032691;28;1267;-68
2022/10/07 10:00:42;;;;;;;;;;;22.80;70.70;;;;;;5014637;28;863;-68
2022/10/07 10:03:07;;;;;;;;;;;22.80;70.50;;;;;;4995418;28;809;-68
2022/10/07 10:05:34;;;;;;;;;;;22.80;70.40;;;;;;4995193;28;1034;-68
2022/10/07 10:08:11;;;;;;;;;;;22.80;70.30;;;;;;4999593;28;1210;-68
2022/10/07 10:10:37;;;;;;;;;;;22.80;70.20;;;;;;5020545;28;813;-67
2022/10/07 10:13:03;;;;;;;;;;;22.80;70.40;;;;;;5030450;28;1906;-67
2022/10/07 10:15:35;;;;;;;;;;;22.80;70.30;;;;;;5018723;28;975;-69
2022/10/07 10:18:00;;;;;;;;;;;22.80;70.40;;;;;;5027953;28;1284;-67
2022/10/07 10:20:26;;;;;;;;;;;22.80;70.40;;;;;;5011110;28;915;-68
2022/10/07 10:22:51;;;;;;;;;;;22.70;70.50;;;;;;5032300;28;923;-68
2022/10/07 10:28:04;;;;;;;;;;;22.70;71.00;;;;;;4997763;28;1355;-68
2022/10/07 10:30:29;;;;;;;;;;;22.70;71.20;;;;;;4994983;28;828;-68
2022/10/07 10:33:11;;;;;;;;;;;22.70;71.50;;;;;;4995842;28;1891;-68
2022/10/07 10:35:41;;;;;;;;;;;22.70;71.60;;;;;;5025155;28;830;-68
2022/10/07 10:38:13;;;;;;;;;;;22.70;71.80;;;;;;4997033;28;1288;-68
2022/10/07 10:40:45;;;;;;;;;;;22.70;72.20;;;;;;5019483;28;876;-69
2022/10/07 10:43:23;;;;;;;;;;;22.70;72.70;;;;;;5010586;28;893;-69
2022/10/07 10:45:48;;;;;;;;;;;22.70;73.00;;;;;;5021660;28;817;-68
2022/10/07 10:48:32;;;;;;;;;;;22.60;72.70;;;;;;5019857;28;1133;-68
2022/10/07 10:51:16;;;;;;;;;;;22.60;72.60;;;;;;5021340;28;924;-68
2022/10/07 10:53:50;;;;;;;;;;;22.60;72.40;;;;;;5022180;28;1898;-67
2022/10/07 10:56:26;;;;;;;;;;;22.60;72.70;;;;;;5003970;28;1253;-69
2022/10/07 10:59:07;;;;;;;;;;;22.60;73.00;;;;;;5031032;28;910;-68
2022/10/07 11:01:36;;;;;;;;;;;22.60;72.90;;;;;;5035311;28;900;-69
2022/10/07 11:04:13;;;;;;;;;;;22.60;72.80;;;;;;4999509;28;761;-68
2022/10/07 11:06:40;;;;;;;;;;;22.60;72.70;;;;;;4998159;28;1259;-68
2022/10/07 11:09:07;;;;;;;;;;;22.60;72.60;;;;;;4997879;28;824;-68
2022/10/07 11:11:32;;;;;;;;;;;22.50;72.60;;;;;;5003522;28;899;-68
2022/10/07 11:14:06;;;;;;;;;;;22.60;72.50;;;;;;5002478;28;1906;-68
2022/10/07 11:16:36;;;;;;;;;;;22.50;72.50;;;;;;5004372;28;1248;-68
2022/10/07 11:19:05;;;;;;;;;;;22.50;72.40;;;;;;5020607;28;1581;-68
2022/10/07 11:21:32;;;;;;;;;;;22.60;72.40;;;;;;5008882;28;1488;-69
2022/10/07 11:24:16;;;;;;;;;;;22.50;72.20;;;;;;5004438;28;1063;-69
2022/10/07 11:26:46;;;;;;;;;;;22.50;72.30;;;;;;5021059;28;1275;-69
2022/10/07 11:29:17;;;;;;;;;;;22.50;72.10;;;;;;5004930;28;1158;-69
2022/10/07 11:31:45;;;;;;;;;;;22.50;72.30;;;;;;5004924;28;1496;-69
2022/10/07 11:34:34;;;;;;;;;;;22.50;72.10;;;;;;5002934;28;1886;-68
2022/10/07 11:37:05;;;;;;;;;;;22.50;72.20;;;;;;5004683;28;1279;-69
2022/10/07 11:39:31;;;;;;;;;;;22.40;72.40;;;;;;5002481;28;963;-68
2022/10/07 11:42:23;;;;;;;;;;;22.50;72.30;;;;;;5019344;28;998;-69
2022/10/07 11:45:04;;;;;;;;;;;22.40;72.50;;;;;;5015443;28;1135;-69
2022/10/07 11:47:34;;;;;;;;;;;22.40;72.70;;;;;;5004676;28;1245;-69
2022/10/07 11:50:19;;;;;;;;;;;22.40;72.80;;;;;;5004274;28;881;-69
2022/10/07 11:52:45;;;;;;;;;;;22.40;72.80;;;;;;5021032;28;1969;-69
2022/10/07 11:55:21;;;;;;;;;;;22.40;72.80;;;;;;5006437;28;910;-69
2022/10/07 11:57:53;;;;;;;;;;;22.50;73.30;;;;;;4996473;28;1281;-68
2022/10/07 12:00:21;;;;;;;;;;;22.40;73.30;;;;;;5019782;28;837;-69
2022/10/07 12:02:47;;;;;;;;;;;22.50;73.40;;;;;;5004576;28;2270;-67
2022/10/07 12:05:31;;;;;;;;;;;22.50;73.80;;;;;;5006885;28;1366;-67
2022/10/07 12:07:57;;;;;;;;;;;22.50;72.20;;;;;;5020191;28;1335;-67
2022/10/07 12:10:24;;;;;;;;;;;22.40;69.00;;;;;;5018696;28;1445;-67
2022/10/07 12:12:56;;;;;;;;;;;22.40;68.20;;;;;;5020339;28;1955;-67
2022/10/07 12:15:26;;;;;;;;;;;22.40;67.00;;;;;;5005275;28;1240;-67
2022/10/07 12:17:52;;;;;;;;;;;22.30;65.20;;;;;;5003195;28;1283;-66
2022/10/07 12:20:30;;;;;;;;;;;22.30;64.50;;;;;;5017580;28;910;-67
2022/10/07 12:23:14;;;;;;;;;;;22.20;64.20;;;;;;5018493;28;1167;-67
2022/10/07 12:25:46;;;;;;;;;;;22.20;63.70;;;;;;5021528;28;1550;-67
2022/10/07 12:28:14;;;;;;;;;;;22.20;63.70;;;;;;5002029;28;1313;-66
2022/10/07 12:30:41;;;;;;;;;;;22.10;63.20;;;;;;5017764;28;816;-67
2022/10/07 12:33:13;;;;;;;;;;;22.10;62.90;;;;;;5003732;28;1903;-67
2022/10/07 12:35:40;;;;;;;;;;;22.10;62.80;;;;;;5020041;28;875;-67
2022/10/07 12:38:15;;;;;;;;;;;22.00;62.60;;;;;;5021565;28;2142;-67
2022/10/07 12:40:42;;;;;;;;;;;22.00;62.50;;;;;;5009086;28;1778;-67
2022/10/07 12:43:34;;;;;;;;;;;22.00;62.00;;;;;;5003498;28;2024;-66
2022/10/07 12:46:00;;;;;;;;;;;22.00;61.70;;;;;;4990220;28;1414;-66
2022/10/07 12:48:26;;;;;;;;;;;22.00;62.20;;;;;;5021837;28;1296;-67
2022/10/07 12:50:52;;;;;;;;;;;21.90;61.90;;;;;;5020085;28;1468;-67
2022/10/07 12:53:18;;;;;;;;;;;21.90;61.90;;;;;;4999801;28;1898;-66
2022/10/07 12:55:46;;;;;;;;;;;21.90;61.40;;;;;;5015017;28;789;-67
2022/10/07 13:01:14;;;;;;;;;;;21.80;61.10;;;;;;5021503;28;1119;-66
2022/10/07 13:03:51;;;;;;;;;;;21.80;60.50;;;;;;5004129;28;2398;-66
2022/10/07 13:06:30;;;;;;;;;;;21.80;60.70;;;;;;5010070;28;1526;-66
2022/10/07 13:09:03;;;;;;;;;;;21.80;60.60;;;;;;5001342;28;1086;-67
2022/10/07 13:11:52;;;;;;;;;;;21.80;60.40;;;;;;5003726;28;1310;-66
2022/10/07 13:14:25;;;;;;;;;;;21.70;59.90;;;;;;5007497;28;1906;-66
2022/10/07 13:17:14;;;;;;;;;;;21.70;59.70;;;;;;5020272;28;1435;-66
2022/10/07 13:20:00;;;;;;;;;;;21.70;59.20;;;;;;5008844;28;1581;-66
2022/10/07 13:22:26;;;;;;;;;;;21.70;59.30;;;;;;4999024;28;876;-66
2022/10/07 13:24:55;;;;;;;;;;;21.70;59.30;;;;;;5000457;28;910;-67
2022/10/07 13:27:27;;;;;;;;;;;21.60;58.60;;;;;;5015561;28;1259;-66
2022/10/07 13:29:52;;;;;;;;;;;21.60;58.60;;;;;;5000655;28;810;-67
2022/10/07 13:32:26;;;;;;;;;;;21.60;57.90;;;;;;4999284;28;1961;-66
2022/10/07 13:34:52;;;;;;;;;;;21.60;57.80;;;;;;5002621;28;1428;-66
2022/10/07 13:37:23;;;;;;;;;;;21.60;57.10;;;;;;5021857;28;1358;-67
2022/10/07 13:39:49;;;;;;;;;;;21.60;56.90;;;;;;5017343;28;1342;-66
2022/10/07 13:42:14;;;;;;;;;;;21.60;56.40;;;;;;5018618;28;828;-67
2022/10/07 13:44:40;;;;;;;;;;;21.60;56.40;;;;;;5019202;28;1351;-66
2022/10/07 13:47:06;;;;;;;;;;;21.60;56.00;;;;;;4999523;28;1336;-67
2022/10/07 13:49:32;;;;;;;;;;;21.50;55.20;;;;;;5017611;28;2072;-66
2022/10/07 13:51:58;;;;;;;;;;;21.50;56.20;;;;;;5020364;28;1203;-66
2022/10/07 13:54:25;;;;;;;;;;;21.50;55.70;;;;;;5002646;28;2181;-66
2022/10/07 13:56:50;;;;;;;;;;;21.50;55.10;;;;;;5007007;28;1236;-66
2022/10/07 13:59:16;;;;;;;;;;;21.50;54.90;;;;;;5017115;28;835;-66
2022/10/07 14:01:42;;;;;;;;;;;21.50;55.20;;;;;;5002035;28;833;-66
2022/10/07 14:04:09;;;;;;;;;;;21.50;55.80;;;;;;4999862;28;901;-66
2022/10/07 14:06:47;;;;;;;;;;;21.40;55.20;;;;;;5018882;28;1202;-66
2022/10/07 14:09:16;;;;;;;;;;;21.50;55.30;;;;;;4999208;28;828;-66
2022/10/07 14:11:42;;;;;;;;;;;21.40;55.10;;;;;;5021276;28;1517;-66
2022/10/07 14:14:17;;;;;;;;;;;21.50;55.80;;;;;;5018153;28;1910;-66
2022/10/07 14:16:44;;;;;;;;;;;21.40;55.90;;;;;;5006163;28;1343;-66
2022/10/07 14:19:14;;;;;;;;;;;21.40;56.30;;;;;;5022205;28;838;-66
2022/10/07 14:21:39;;;;;;;;;;;21.40;55.80;;;;;;5020483;28;851;-66
2022/10/07 14:24:08;;;;;;;;;;;21.40;55.20;;;;;;5006071;28;939;-66
2022/10/07 14:26:42;;;;;;;;;;;21.40;55.80;;;;;;5008791;28;1248;-66
2022/10/07 14:29:26;;;;;;;;;;;21.40;55.80;;;;;;5021833;28;859;-67
2022/10/07 14:37:34;;;;;;;;;;;21.40;56.20;;;;;;5018824;28;1337;-66
2022/10/07 14:39:59;;;;;;;;;;;21.40;56.20;;;;;;5020105;28;880;-67
2022/10/07 14:42:28;;;;;;;;;;;21.40;56.10;;;;;;5022847;28;891;-67
2022/10/07 14:44:54;;;;;;;;;;;21.30;56.00;;;;;;5005275;28;924;-67
2022/10/07 14:47:23;;;;;;;;;;;21.30;56.10;;;;;;5001508;28;1377;-66
2022/10/07 14:49:48;;;;;;;;;;;21.30;56.50;;;;;;5022835;28;859;-67
2022/10/07 14:52:21;;;;;;;;;;;21.30;56.10;;;;;;5019879;28;1758;-66
2022/10/07 14:54:47;;;;;;;;;;;21.30;55.90;;;;;;5007111;28;880;-66
2022/10/07 14:57:12;;;;;;;;;;;21.30;56.20;;;;;;5021779;28;1335;-67
2022/10/07 14:59:38;;;;;;;;;;;21.30;56.30;;;;;;5020461;28;788;-65
2022/10/07 15:02:05;;;;;;;;;;;21.30;56.00;;;;;;5019422;28;930;-66